sensor_id;sensor_type;location;lat;lon;timestamp;pressure;altitude;pressure_sealevel;temperature;humidity
7754;BME280;3921;42.266;23.122;2023-03-20T00:00:23;95955.97;;;6.87;56.40
7754;BME280;3921;42.266;23.122;2023-03-20T00:02:51;95760.97;;;5.66;56.18
7754;BME280;3921;42.266;23.122;2023-03-20T00:05:21;95897.94;;;6.49;55.79
7754;BME280;3921;42.266;23.122;2023-03-20T00:07:49;95686.31;;;5.25;56.11
7754;BME280;3921;42.266;23.122;2023-03-20T00:10:17;95509.00;;;4.03;55.93
7754;BME280;3921;42.266;23.122;2023-03-20T00:12:47;96002.50;;;6.81;56.64
7754;BME280;3921;42.266;23.122;2023-03-20T00:15:27;95750.22;;;5.22;56.53
7754;BME280;3921;42.266;23.122;2023-03-20T00:17:55;95916.63;;;6.24;57.26
7754;BME280;3921;42.266;23.122;2023-03-20T00:20:24;96000.31;;;6.49;57.05
7754;BME280;3921;42.266;23.122;2023-03-20T00:22:52;95967.56;;;6.34;56.97
7754;BME280;3921;42.266;23.122;2023-03-20T00:25:21;95792.38;;;5.14;57.29
7754;BME280;3921;42.266;23.122;2023-03-20T00:27:49;95745.66;;;5.02;57.53
7754;BME280;3921;42.266;23.122;2023-03-20T00:30:26;95879.59;;;5.97;57.16
7754;BME280;3921;42.266;23.122;2023-03-20T00:32:56;95512.13;;;3.55;56.74
7754;BME280;3921;42.266;23.122;2023-03-20T00:35:27;96023.94;;;6.68;57.82
7754;BME280;3921;42.266;23.122;2023-03-20T00:37:57;95761.66;;;4.73;56.91
7754;BME280;3921;42.266;23.122;2023-03-20T00:40:28;95962.44;;;6.26;57.17
7754;BME280;3921;42.266;23.122;2023-03-20T00:42:59;95963.91;;;6.17;58.25
7754;BME280;3921;42.266;23.122;2023-03-20T00:45:28;95754.28;;;4.76;57.90
7754;BME280;3921;42.266;23.122;2023-03-20T00:47:56;95735.50;;;4.52;58.25
7754;BME280;3921;42.266;23.122;2023-03-20T00:50:26;95836.38;;;5.14;58.99
7754;BME280;3921;42.266;23.122;2023-03-20T00:52:55;95793.66;;;4.95;58.58
7754;BME280;3921;42.266;23.122;2023-03-20T00:55:24;95898.19;;;5.72;58.49
7754;BME280;3921;42.266;23.122;2023-03-20T00:57:54;95518.25;;;3.31;57.87
7754;BME280;3921;42.266;23.122;2023-03-20T01:00:24;95839.00;;;5.20;58.87
7754;BME280;3921;42.266;23.122;2023-03-20T01:02:54;95908.13;;;5.71;58.52
7754;BME280;3921;42.266;23.122;2023-03-20T01:05:22;95899.72;;;5.66;58.28
7754;BME280;3921;42.266;23.122;2023-03-20T01:07:51;95826.69;;;5.27;58.43
7754;BME280;3921;42.266;23.122;2023-03-20T01:10:18;95754.78;;;4.61;57.93
7754;BME280;3921;42.266;23.122;2023-03-20T01:12:46;95883.63;;;5.50;58.57
7754;BME280;3921;42.266;23.122;2023-03-20T01:15:19;96002.53;;;6.35;58.71
7754;BME280;3921;42.266;23.122;2023-03-20T01:17:47;95716.47;;;4.53;58.16
7754;BME280;3921;42.266;23.122;2023-03-20T01:20:17;95642.34;;;4.00;58.63
7754;BME280;3921;42.266;23.122;2023-03-20T01:22:44;95473.00;;;3.07;58.50
7754;BME280;3921;42.266;23.122;2023-03-20T01:25:13;95889.63;;;5.59;58.06
7754;BME280;3921;42.266;23.122;2023-03-20T01:27:42;95883.69;;;5.53;58.10
7754;BME280;3921;42.266;23.122;2023-03-20T01:30:17;95925.66;;;5.74;58.94
7754;BME280;3921;42.266;23.122;2023-03-20T01:32:44;95787.88;;;4.59;59.41
7754;BME280;3921;42.266;23.122;2023-03-20T01:35:14;95933.22;;;5.38;60.19
7754;BME280;3921;42.266;23.122;2023-03-20T01:37:42;95489.72;;;2.78;58.70
7754;BME280;3921;42.266;23.122;2023-03-20T01:40:20;95890.00;;;5.37;59.01
7754;BME280;3921;42.266;23.122;2023-03-20T01:42:50;95806.97;;;4.96;58.84
7754;BME280;3921;42.266;23.122;2023-03-20T01:45:21;95755.28;;;4.46;58.68
7754;BME280;3921;42.266;23.122;2023-03-20T01:47:49;95531.31;;;3.23;58.32
7754;BME280;3921;42.266;23.122;2023-03-20T01:50:37;96009.56;;;6.12;59.36
7754;BME280;3921;42.266;23.122;2023-03-20T01:53:09;96009.75;;;6.20;59.08
7754;BME280;3921;42.266;23.122;2023-03-20T01:55:40;96019.53;;;6.11;58.98
7754;BME280;3921;42.266;23.122;2023-03-20T01:58:13;95853.59;;;5.03;58.88
7754;BME280;3921;42.266;23.122;2023-03-20T02:00:42;95817.44;;;4.45;59.75
7754;BME280;3921;42.266;23.122;2023-03-20T02:03:09;95857.88;;;4.71;60.01
7754;BME280;3921;42.266;23.122;2023-03-20T02:05:36;95942.50;;;5.07;59.67
7754;BME280;3921;42.266;23.122;2023-03-20T02:08:22;96018.94;;;5.83;60.03
7754;BME280;3921;42.266;23.122;2023-03-20T02:10:53;95927.69;;;5.13;60.06
7754;BME280;3921;42.266;23.122;2023-03-20T02:13:21;95736.50;;;3.85;59.24
7754;BME280;3921;42.266;23.122;2023-03-20T02:16:00;96019.50;;;5.70;59.64
7754;BME280;3921;42.266;23.122;2023-03-20T02:18:27;95589.41;;;2.96;59.93
7754;BME280;3921;42.266;23.122;2023-03-20T02:24:43;96016.75;;;5.59;59.67
7754;BME280;3921;42.266;23.122;2023-03-20T02:27:24;95904.56;;;4.81;60.27
7754;BME280;3921;42.266;23.122;2023-03-20T02:30:22;96019.81;;;5.48;60.21
7754;BME280;3921;42.266;23.122;2023-03-20T02:33:33;95857.16;;;4.40;60.48
7754;BME280;3921;42.266;23.122;2023-03-20T02:36:25;96017.31;;;5.46;60.46
7754;BME280;3921;42.266;23.122;2023-03-20T02:39:16;95943.69;;;4.87;60.79
7754;BME280;3921;42.266;23.122;2023-03-20T02:41:53;95471.03;;;1.94;60.88
7754;BME280;3921;42.266;23.122;2023-03-20T02:44:28;95797.69;;;3.80;61.84
7754;BME280;3921;42.266;23.122;2023-03-20T02:47:02;95719.56;;;3.37;61.50
7754;BME280;3921;42.266;23.122;2023-03-20T02:49:48;95474.88;;;1.83;61.41
7754;BME280;3921;42.266;23.122;2023-03-20T02:52:20;95846.59;;;4.14;61.73
7754;BME280;3921;42.266;23.122;2023-03-20T02:54:57;95676.53;;;3.05;61.60
7754;BME280;3921;42.266;23.122;2023-03-20T02:57:37;95920.25;;;4.42;61.30
7754;BME280;3921;42.266;23.122;2023-03-20T03:00:11;95804.97;;;3.74;61.68
7754;BME280;3921;42.266;23.122;2023-03-20T03:02:43;95640.19;;;2.76;61.20
7754;BME280;3921;42.266;23.122;2023-03-20T03:05:15;95641.38;;;2.90;61.26
7754;BME280;3921;42.266;23.122;2023-03-20T03:07:45;95648.91;;;2.61;62.03
7754;BME280;3921;42.266;23.122;2023-03-20T03:10:18;95862.22;;;4.10;61.58
7754;BME280;3921;42.266;23.122;2023-03-20T03:12:48;95914.31;;;4.37;61.79
7754;BME280;3921;42.266;23.122;2023-03-20T03:15:20;95697.56;;;3.18;61.29
7754;BME280;3921;42.266;23.122;2023-03-20T03:17:51;95960.94;;;4.79;60.27
7754;BME280;3921;42.266;23.122;2023-03-20T03:20:21;96038.56;;;5.32;60.60
7754;BME280;3921;42.266;23.122;2023-03-20T03:22:50;95740.59;;;3.50;60.20
7754;BME280;3921;42.266;23.122;2023-03-20T03:25:20;96002.50;;;5.52;59.61
7754;BME280;3921;42.266;23.122;2023-03-20T03:27:53;95734.56;;;3.73;59.37
7754;BME280;3921;42.266;23.122;2023-03-20T03:30:25;95786.56;;;4.00;59.93
7754;BME280;3921;42.266;23.122;2023-03-20T03:33:13;95867.25;;;4.46;60.28
7754;BME280;3921;42.266;23.122;2023-03-20T03:35:41;95836.97;;;4.28;59.88
7754;BME280;3921;42.266;23.122;2023-03-20T03:38:23;96013.91;;;5.43;60.11
7754;BME280;3921;42.266;23.122;2023-03-20T03:41:02;95827.72;;;4.24;60.32
7754;BME280;3921;42.266;23.122;2023-03-20T03:43:36;95789.00;;;3.97;60.08
7754;BME280;3921;42.266;23.122;2023-03-20T03:46:10;95461.09;;;1.93;60.84
7754;BME280;3921;42.266;23.122;2023-03-20T03:48:42;95892.41;;;4.59;59.92
7754;BME280;3921;42.266;23.122;2023-03-20T03:51:13;95836.25;;;4.34;59.86
7754;BME280;3921;42.266;23.122;2023-03-20T03:53:46;95489.09;;;2.20;59.97
7754;BME280;3921;42.266;23.122;2023-03-20T03:56:19;95912.19;;;4.52;60.43
7754;BME280;3921;42.266;23.122;2023-03-20T03:58:52;95794.75;;;3.63;61.00
7754;BME280;3921;42.266;23.122;2023-03-20T04:01:22;95441.16;;;1.58;60.37
7754;BME280;3921;42.266;23.122;2023-03-20T04:03:52;95728.38;;;3.26;60.87
7754;BME280;3921;42.266;23.122;2023-03-20T04:06:19;95887.16;;;4.46;60.34
7754;BME280;3921;42.266;23.122;2023-03-20T04:08:47;95797.28;;;3.65;60.62
7754;BME280;3921;42.266;23.122;2023-03-20T04:11:18;95666.47;;;3.01;60.13
7754;BME280;3921;42.266;23.122;2023-03-20T04:13:47;95453.47;;;1.85;59.96
7754;BME280;3921;42.266;23.122;2023-03-20T04:16:15;95986.69;;;5.16;59.47
7754;BME280;3921;42.266;23.122;2023-03-20T04:18:43;95929.16;;;4.69;59.75
7754;BME280;3921;42.266;23.122;2023-03-20T04:21:11;95966.50;;;5.03;59.94
7754;BME280;3921;42.266;23.122;2023-03-20T04:23:38;95474.50;;;1.99;59.48
7754;BME280;3921;42.266;23.122;2023-03-20T04:26:06;95557.06;;;2.28;60.21
7754;BME280;3921;42.266;23.122;2023-03-20T04:28:34;95902.84;;;4.42;59.62
7754;BME280;3921;42.266;23.122;2023-03-20T04:31:02;95810.41;;;3.92;59.36
7754;BME280;3921;42.266;23.122;2023-03-20T04:33:29;95678.56;;;3.20;59.63
7754;BME280;3921;42.266;23.122;2023-03-20T04:35:56;95882.09;;;4.42;59.54
7754;BME280;3921;42.266;23.122;2023-03-20T04:38:23;95405.34;;;1.45;60.04
7754;BME280;3921;42.266;23.122;2023-03-20T04:40:50;95912.53;;;4.33;60.03
7754;BME280;3921;42.266;23.122;2023-03-20T04:43:17;95889.03;;;4.22;60.79
7754;BME280;3921;42.266;23.122;2023-03-20T04:45:46;95910.31;;;4.44;60.66
7754;BME280;3921;42.266;23.122;2023-03-20T04:48:13;95892.72;;;4.36;60.35
7754;BME280;3921;42.266;23.122;2023-03-20T04:50:40;95758.09;;;3.55;60.10
7754;BME280;3921;42.266;23.122;2023-03-20T04:53:11;95752.78;;;3.41;60.29
7754;BME280;3921;42.266;23.122;2023-03-20T04:55:37;95827.84;;;3.94;59.99
7754;BME280;3921;42.266;23.122;2023-03-20T04:58:04;95891.78;;;4.31;60.21
7754;BME280;3921;42.266;23.122;2023-03-20T05:00:32;96028.91;;;5.10;60.23
7754;BME280;3921;42.266;23.122;2023-03-20T05:03:00;95598.19;;;2.22;60.54
7754;BME280;3921;42.266;23.122;2023-03-20T05:05:32;95667.41;;;2.74;60.49
7754;BME280;3921;42.266;23.122;2023-03-20T05:08:03;95872.97;;;3.78;61.33
7754;BME280;3921;42.266;23.122;2023-03-20T05:10:30;95937.41;;;4.33;61.21
7754;BME280;3921;42.266;23.122;2023-03-20T05:12:57;95693.91;;;2.75;60.67
7754;BME280;3921;42.266;23.122;2023-03-20T05:15:24;95938.38;;;4.07;61.04
7754;BME280;3921;42.266;23.122;2023-03-20T05:17:51;95917.88;;;3.84;61.40
7754;BME280;3921;42.266;23.122;2023-03-20T05:20:21;95701.94;;;2.36;60.76
7754;BME280;3921;42.266;23.122;2023-03-20T05:22:48;95847.53;;;3.55;61.35
7754;BME280;3921;42.266;23.122;2023-03-20T05:25:17;95870.59;;;3.81;60.42
7754;BME280;3921;42.266;23.122;2023-03-20T05:27:44;95966.81;;;4.15;61.32
7754;BME280;3921;42.266;23.122;2023-03-20T05:30:12;96007.38;;;4.44;62.10
7754;BME280;3921;42.266;23.122;2023-03-20T05:32:39;95930.81;;;4.02;61.47
7754;BME280;3921;42.266;23.122;2023-03-20T05:35:22;95905.00;;;3.97;61.79
7754;BME280;3921;42.266;23.122;2023-03-20T05:37:49;95920.25;;;4.11;61.66
7754;BME280;3921;42.266;23.122;2023-03-20T05:40:17;96034.09;;;4.84;62.52
7754;BME280;3921;42.266;23.122;2023-03-20T05:42:45;95990.66;;;4.71;61.84
7754;BME280;3921;42.266;23.122;2023-03-20T05:45:12;95940.56;;;4.26;62.30
7754;BME280;3921;42.266;23.122;2023-03-20T05:47:40;95837.75;;;3.61;63.09
7754;BME280;3921;42.266;23.122;2023-03-20T05:50:08;95567.75;;;1.96;62.52
7754;BME280;3921;42.266;23.122;2023-03-20T05:52:40;96057.91;;;5.06;62.74
7754;BME280;3921;42.266;23.122;2023-03-20T05:55:22;95506.88;;;1.75;62.77
7754;BME280;3921;42.266;23.122;2023-03-20T05:58:21;95521.19;;;1.85;63.20
7754;BME280;3921;42.266;23.122;2023-03-20T06:00:49;95749.56;;;3.45;62.69
7754;BME280;3921;42.266;23.122;2023-03-20T06:03:19;95404.72;;;1.24;62.57
7754;BME280;3921;42.266;23.122;2023-03-20T06:05:46;95584.75;;;2.44;62.65
7754;BME280;3921;42.266;23.122;2023-03-20T06:08:15;95652.13;;;2.89;63.06
7754;BME280;3921;42.266;23.122;2023-03-20T06:10:42;95929.53;;;4.84;61.79
7754;BME280;3921;42.266;23.122;2023-03-20T06:13:13;95638.09;;;2.91;61.26
7754;BME280;3921;42.266;23.122;2023-03-20T06:15:42;95513.56;;;2.08;62.24
7754;BME280;3921;42.266;23.122;2023-03-20T06:18:09;95834.84;;;4.09;62.01
7754;BME280;3921;42.266;23.122;2023-03-20T06:20:36;95494.97;;;2.24;62.27
7754;BME280;3921;42.266;23.122;2023-03-20T06:23:04;95513.91;;;2.22;62.50
7754;BME280;3921;42.266;23.122;2023-03-20T06:25:32;95957.75;;;5.21;62.49
7754;BME280;3921;42.266;23.122;2023-03-20T06:28:00;95703.69;;;3.65;62.80
7754;BME280;3921;42.266;23.122;2023-03-20T06:30:27;96027.69;;;5.65;62.68
7754;BME280;3921;42.266;23.122;2023-03-20T06:32:54;95651.38;;;3.26;62.32
7754;BME280;3921;42.266;23.122;2023-03-20T06:35:22;95683.47;;;3.50;62.72
7754;BME280;3921;42.266;23.122;2023-03-20T06:37:49;96043.28;;;5.92;61.92
7754;BME280;3921;42.266;23.122;2023-03-20T06:40:18;95524.56;;;2.82;62.04
7754;BME280;3921;42.266;23.122;2023-03-20T06:42:47;95400.72;;;2.22;61.16
7754;BME280;3921;42.266;23.122;2023-03-20T06:45:15;95425.50;;;2.22;62.58
7754;BME280;3921;42.266;23.122;2023-03-20T06:47:42;95787.84;;;4.56;62.34
7754;BME280;3921;42.266;23.122;2023-03-20T06:50:10;95609.31;;;3.32;62.88
7754;BME280;3921;42.266;23.122;2023-03-20T06:52:38;95613.50;;;3.69;62.54
7754;BME280;3921;42.266;23.122;2023-03-20T06:55:06;95788.22;;;4.74;62.81
7754;BME280;3921;42.266;23.122;2023-03-20T06:57:38;96040.00;;;6.37;62.65
7754;BME280;3921;42.266;23.122;2023-03-20T07:00:08;95863.19;;;5.25;62.80
7754;BME280;3921;42.266;23.122;2023-03-20T07:02:36;95680.50;;;4.39;62.34
7754;BME280;3921;42.266;23.122;2023-03-20T07:05:03;95471.59;;;3.18;62.03
7754;BME280;3921;42.266;23.122;2023-03-20T07:30:26;95997.47;;;7.31;59.99
7754;BME280;3921;42.266;23.122;2023-03-20T07:33:05;95466.44;;;3.87;59.61
7754;BME280;3921;42.266;23.122;2023-03-20T07:35:32;96037.16;;;7.65;59.68
7754;BME280;3921;42.266;23.122;2023-03-20T07:38:00;95804.22;;;6.15;59.24
7754;BME280;3921;42.266;23.122;2023-03-20T07:40:32;95540.88;;;4.67;59.18
7754;BME280;3921;42.266;23.122;2023-03-20T07:43:13;95685.72;;;5.90;58.49
7754;BME280;3921;42.266;23.122;2023-03-20T07:45:43;95638.88;;;5.71;58.04
7754;BME280;3921;42.266;23.122;2023-03-20T07:48:11;95841.81;;;6.79;57.56
7754;BME280;3921;42.266;23.122;2023-03-20T07:50:39;95480.41;;;4.74;57.44
7754;BME280;3921;42.266;23.122;2023-03-20T07:53:06;95881.66;;;7.29;57.78
7754;BME280;3921;42.266;23.122;2023-03-20T07:55:38;95472.38;;;4.89;57.44
7754;BME280;3921;42.266;23.122;2023-03-20T07:58:32;95522.56;;;5.15;56.66
7754;BME280;3921;42.266;23.122;2023-03-20T08:05:11;96013.22;;;8.52;56.76
7754;BME280;3921;42.266;23.122;2023-03-20T08:07:41;95459.53;;;5.18;56.59
7754;BME280;3921;42.266;23.122;2023-03-20T08:10:10;95478.06;;;5.37;56.41
7754;BME280;3921;42.266;23.122;2023-03-20T08:12:38;95506.44;;;5.48;56.45
7754;BME280;3921;42.266;23.122;2023-03-20T08:15:07;95903.50;;;8.19;56.22
7754;BME280;3921;42.266;23.122;2023-03-20T08:17:53;95986.81;;;8.84;55.65
7754;BME280;3921;42.266;23.122;2023-03-20T09:08:44;95561.69;;;7.23;51.96
7754;BME280;3921;42.266;23.122;2023-03-20T09:16:42;95819.19;;;9.37;51.84
7754;BME280;3921;42.266;23.122;2023-03-20T09:33:25;95930.84;;;10.55;49.67
7754;BME280;3921;42.266;23.122;2023-03-20T10:26:23;95356.94;;;9.44;46.56
7754;BME280;3921;42.266;23.122;2023-03-20T11:55:26;95669.75;;;18.91;33.14
7754;BME280;3921;42.266;23.122;2023-03-20T12:00:46;95204.56;;;16.24;30.52
7754;BME280;3921;42.266;23.122;2023-03-20T12:03:42;95653.19;;;19.26;31.65
7754;BME280;3921;42.266;23.122;2023-03-20T12:08:53;95336.25;;;17.33;34.00
7754;BME280;3921;42.266;23.122;2023-03-20T12:11:46;95636.69;;;19.58;30.23
7754;BME280;3921;42.266;23.122;2023-03-20T12:14:26;95371.75;;;17.83;30.35
7754;BME280;3921;42.266;23.122;2023-03-20T12:17:13;95269.78;;;17.45;29.61
7754;BME280;3921;42.266;23.122;2023-03-20T12:19:50;95379.28;;;18.31;31.59
7754;BME280;3921;42.266;23.122;2023-03-20T12:51:29;95157.75;;;18.17;27.99
7754;BME280;3921;42.266;23.122;2023-03-20T12:54:25;95440.34;;;19.81;28.51
7754;BME280;3921;42.266;23.122;2023-03-20T12:57:06;95171.84;;;18.03;28.25
7754;BME280;3921;42.266;23.122;2023-03-20T12:59:49;95147.75;;;17.92;28.55
7754;BME280;3921;42.266;23.122;2023-03-20T14:22:21;95008.84;;;17.28;26.69
7754;BME280;3921;42.266;23.122;2023-03-20T14:25:06;95466.78;;;20.18;25.52
7754;BME280;3921;42.266;23.122;2023-03-20T14:27:55;95030.97;;;17.46;24.50
7754;BME280;3921;42.266;23.122;2023-03-20T15:08:18;95343.19;;;17.76;25.08
7754;BME280;3921;42.266;23.122;2023-03-20T15:11:08;95015.19;;;15.51;25.73
7754;BME280;3921;42.266;23.122;2023-03-20T15:36:54;95012.22;;;14.83;29.82
7754;BME280;3921;42.266;23.122;2023-03-20T15:39:24;94983.16;;;14.39;30.33
7754;BME280;3921;42.266;23.122;2023-03-20T15:41:57;95035.13;;;14.79;28.86
7754;BME280;3921;42.266;23.122;2023-03-20T15:44:34;95158.38;;;15.59;29.58
7754;BME280;3921;42.266;23.122;2023-03-20T15:49:50;94976.16;;;14.19;31.31
7754;BME280;3921;42.266;23.122;2023-03-20T15:52:26;95028.25;;;14.54;32.24
7754;BME280;3921;42.266;23.122;2023-03-20T15:54:55;94964.22;;;13.95;32.91
7754;BME280;3921;42.266;23.122;2023-03-20T16:00:45;95103.34;;;14.82;32.82
7754;BME280;3921;42.266;23.122;2023-03-20T16:03:16;94989.38;;;13.98;33.38
7754;BME280;3921;42.266;23.122;2023-03-20T16:05:49;95371.75;;;16.27;33.48
7754;BME280;3921;42.266;23.122;2023-03-20T16:11:32;95011.66;;;13.84;34.89
7754;BME280;3921;42.266;23.122;2023-03-20T16:14:27;95451.63;;;16.69;35.17
7754;BME280;3921;42.266;23.122;2023-03-20T16:16:58;95004.41;;;13.70;35.00
7754;BME280;3921;42.266;23.122;2023-03-20T16:19:28;94975.34;;;13.55;35.31
7754;BME280;3921;42.266;23.122;2023-03-20T16:21:58;94969.59;;;13.50;35.90
7754;BME280;3921;42.266;23.122;2023-03-20T16:25:01;95198.97;;;14.68;36.35
7754;BME280;3921;42.266;23.122;2023-03-20T16:27:51;95466.00;;;16.41;36.40
7754;BME280;3921;42.266;23.122;2023-03-20T16:30:39;95286.16;;;15.20;36.59
7754;BME280;3921;42.266;23.122;2023-03-20T16:33:17;95007.09;;;13.31;37.23
7754;BME280;3921;42.266;23.122;2023-03-20T16:35:50;94973.97;;;13.08;38.43
7754;BME280;3921;42.266;23.122;2023-03-20T16:38:23;94919.00;;;12.49;39.13
7754;BME280;3921;42.266;23.122;2023-03-20T16:40:55;95137.38;;;13.69;39.24
7754;BME280;3921;42.266;23.122;2023-03-20T16:46:27;95114.63;;;13.35;39.35
7754;BME280;3921;42.266;23.122;2023-03-20T16:52:11;95497.22;;;15.81;40.40
7754;BME280;3921;42.266;23.122;2023-03-20T17:24:25;95197.09;;;13.33;38.58
7754;BME280;3921;42.266;23.122;2023-03-20T17:26:54;95069.44;;;12.45;38.15
7754;BME280;3921;42.266;23.122;2023-03-20T17:33:40;95552.03;;;15.49;40.35
7754;BME280;3921;42.266;23.122;2023-03-20T18:05:37;95040.59;;;11.69;43.42
7754;BME280;3921;42.266;23.122;2023-03-20T18:40:35;95099.75;;;11.42;45.33
7754;BME280;3921;42.266;23.122;2023-03-20T18:43:09;95079.91;;;11.25;45.41
7754;BME280;3921;42.266;23.122;2023-03-20T18:45:40;95252.75;;;12.31;45.90
7754;BME280;3921;42.266;23.122;2023-03-20T18:48:13;95087.59;;;11.14;45.85
7754;BME280;3921;42.266;23.122;2023-03-20T18:50:45;95017.13;;;10.62;46.27
7754;BME280;3921;42.266;23.122;2023-03-20T18:53:26;95350.22;;;12.82;45.80
7754;BME280;3921;42.266;23.122;2023-03-20T18:56:18;95285.50;;;12.31;46.13
7754;BME280;3921;42.266;23.122;2023-03-20T19:02:52;95564.09;;;14.16;46.48
7754;BME280;3921;42.266;23.122;2023-03-20T19:14:45;95156.97;;;11.28;47.34
7754;BME280;3921;42.266;23.122;2023-03-20T19:21:14;95514.81;;;13.48;46.91
7754;BME280;3921;42.266;23.122;2023-03-20T19:33:25;95561.44;;;13.77;47.04
7754;BME280;3921;42.266;23.122;2023-03-20T19:39:25;95056.03;;;10.29;47.92
7754;BME280;3921;42.266;23.122;2023-03-20T19:45:01;95047.53;;;10.41;47.50
7754;BME280;3921;42.266;23.122;2023-03-20T19:48:10;95052.16;;;10.00;48.17
7754;BME280;3921;42.266;23.122;2023-03-20T19:58:57;95461.41;;;12.65;49.32
7754;BME280;3921;42.266;23.122;2023-03-20T23:17:43;94930.06;;;7.90;54.34
7754;BME280;3921;42.266;23.122;2023-03-20T23:20:13;94979.19;;;8.13;54.08
7754;BME280;3921;42.266;23.122;2023-03-20T23:33:35;94983.28;;;8.29;54.25
